CheckWX is a tool to help pilots better visualize weather data.  It is not intended as a substitute for an official pre-flight weather briefing.

16:52:48 UTC

KLAS TAF
Mc Carran International Airport
Las Vegas, Nevada, USA
KLAS 141439Z 1415/1518 VRB04KT P6SM FEW050 BKN250 FM142000 02006KT P6SM FEW050 FEW150 SCT250 FM150200 25009KT P6SM BKN070 FM150800 28008KT P6SM VCSH BKN070 FM151200 30012G20KT P6SM FEW050 SCT080

Dec-14@
15:00 UTC

Dec-14 @ 15:00 UTC

Dec-14@
20:00 UTC

Dec-14 @ 20:00 UTC

KLAS 141439Z 1415/1518 VRB04KT P6SM FEW050 BKN250
Wind
  • Variable at 4 KTS
Cloud Levels
  • Few at 5,000' AGL
  • Broken at 25,000' AGL

Dec-14@
20:00 UTC

Dec-14 @ 20:00 UTC

Dec-15@
02:00 UTC

Dec-15 @ 02:00 UTC

FM142000 02006KT P6SM FEW050 FEW150 SCT250

From

From Standard forecast or significant change

Wind
  • 020° at 6 KTS
Cloud Levels
  • Few at 5,000' AGL
  • Few at 15,000' AGL
  • Scattered at 25,000' AGL

Dec-15@
02:00 UTC

Dec-15 @ 02:00 UTC

Dec-15@
08:00 UTC

Dec-15 @ 08:00 UTC

FM150200 25009KT P6SM BKN070

From

From Standard forecast or significant change

Wind
  • 250° at 9 KTS
Cloud Levels
  • Broken at 7,000' AGL

Dec-15@
08:00 UTC

Dec-15 @ 08:00 UTC

Dec-15@
12:00 UTC

Dec-15 @ 12:00 UTC

FM150800 28008KT P6SM VCSH BKN070

From

From Standard forecast or significant change

Wind
  • 280° at 8 KTS
Cloud Levels
  • Broken at 7,000' AGL

Dec-15@
12:00 UTC

Dec-15 @ 12:00 UTC

Dec-15@
18:00 UTC

Dec-15 @ 18:00 UTC

FM151200 30012G20KT P6SM FEW050 SCT080

From

From Standard forecast or significant change

Wind
  • 300° at 12 KTS
  • {Gusting to 20 KTS
Cloud Levels
  • Few at 5,000' AGL
  • Scattered at 8,000' AGL